Time;durP1;ratioP1;P1;durP2;ratioP2;P2;SDS_P1;SDS_P2;PMS_P1;PMS_P2;Temp;Humidity;BMP_temperature;BMP_pressure;BME280_temperature;BME280_humidity;BME280_pressure;Samples;Min_cycle;Max_cycle;Signal;HPM_P1;HPM_P2
2022/01/10 00:02:11;;;;;;;14.38;8.70;;;4.60;93.60;;;;;;4954724;29;20066;-73
2022/01/10 00:04:36;;;;;;;19.10;9.15;;;4.60;93.60;;;;;;4944081;29;20043;-76
2022/01/10 00:07:02;;;;;;;16.02;8.80;;;4.60;93.60;;;;;;4957561;28;20091;-76
2022/01/10 00:09:28;;;;;;;21.13;8.85;;;4.50;93.60;;;;;;4923664;29;20059;-74
2022/01/10 00:11:54;;;;;;;20.65;8.93;;;4.50;93.60;;;;;;4928082;29;20488;-76
2022/01/10 00:14:19;;;;;;;18.85;9.80;;;4.50;93.60;;;;;;4949895;29;20058;-75
2022/01/10 00:16:45;;;;;;;18.60;8.98;;;4.50;93.60;;;;;;4939207;29;20039;-75
2022/01/10 00:19:11;;;;;;;17.92;8.80;;;4.50;93.60;;;;;;4908986;29;20711;-75
2022/01/10 00:21:36;;;;;;;17.73;9.60;;;4.40;93.60;;;;;;4903193;29;20265;-77
2022/01/10 00:24:02;;;;;;;22.05;9.35;;;4.40;93.60;;;;;;4955445;29;20471;-74
2022/01/10 00:26:28;;;;;;;18.35;10.05;;;4.40;93.60;;;;;;4936197;29;20043;-76
2022/01/10 00:28:53;;;;;;;21.42;10.43;;;4.40;93.60;;;;;;4944563;28;20051;-83
2022/01/10 00:31:19;;;;;;;17.73;9.73;;;4.30;93.60;;;;;;4906940;29;20101;-76
2022/01/10 00:33:45;;;;;;;19.67;9.82;;;4.30;93.60;;;;;;4910587;29;20085;-77
2022/01/10 00:36:11;;;;;;;16.60;9.48;;;4.30;93.60;;;;;;4920225;29;20062;-78
2022/01/10 00:38:37;;;;;;;18.92;9.38;;;4.20;93.60;;;;;;4944498;29;20058;-75
2022/01/10 00:41:02;;;;;;;16.58;9.07;;;4.20;93.60;;;;;;4917860;29;20484;-75
2022/01/10 00:43:39;;;;;;;20.20;9.73;;;4.30;93.60;;;;;;4954576;29;20138;-75
2022/01/10 00:46:05;;;;;;;18.90;9.88;;;4.20;93.60;;;;;;4918816;29;20058;-76
2022/01/10 00:48:31;;;;;;;17.75;9.40;;;4.20;93.60;;;;;;4971783;28;20478;-75
2022/01/10 00:50:56;;;;;;;20.08;9.82;;;4.20;93.60;;;;;;4939675;29;20103;-82
2022/01/10 00:53:25;;;;;;;18.25;10.13;;;4.10;93.60;;;;;;4952141;29;20052;-76
2022/01/10 00:55:51;;;;;;;18.17;10.45;;;4.10;93.60;;;;;;4920377;29;20448;-76
2022/01/10 00:58:17;;;;;;;20.67;10.80;;;4.10;93.60;;;;;;4904571;29;20091;-77
2022/01/10 01:00:42;;;;;;;24.30;10.98;;;4.10;93.60;;;;;;4923948;29;20118;-76
2022/01/10 01:03:08;;;;;;;19.38;9.90;;;4.10;93.60;;;;;;4939378;29;20043;-75
2022/01/10 01:05:40;;;;;;;20.77;10.75;;;4.10;93.60;;;;;;4939103;29;20143;-75
2022/01/10 01:08:08;;;;;;;;;;;4.00;93.60;;;;;;4924867;29;20058;-75
2022/01/10 01:13:18;;;;;;;22.88;9.73;;;4.00;93.70;;;;;;4923997;29;20057;-82
2022/01/10 01:16:41;;;;;;;21.65;10.60;;;3.90;93.60;;;;;;4911685;29;20574;-77
2022/01/10 01:24:07;;;;;;;19.40;10.82;;;3.90;93.70;;;;;;4942038;29;20059;-75
2022/01/10 01:26:40;;;;;;;16.45;10.23;;;3.80;93.60;;;;;;4924673;29;20055;-75
2022/01/10 01:29:07;;;;;;;20.55;11.27;;;3.80;93.70;;;;;;4939601;29;20056;-76
2022/01/10 01:31:33;;;;;;;21.30;10.73;;;3.80;93.70;;;;;;4939097;29;20501;-76
2022/01/10 01:33:59;;;;;;;19.33;10.80;;;3.80;93.70;;;;;;4954817;29;20047;-75
2022/01/10 01:36:26;;;;;;;20.52;11.38;;;3.80;93.70;;;;;;4938516;29;20472;-75
2022/01/10 01:38:53;;;;;;;17.52;10.60;;;3.80;93.70;;;;;;4953873;29;20054;-75
2022/01/10 01:41:34;;;;;;;22.02;10.95;;;3.70;93.70;;;;;;4922186;29;20566;-75
2022/01/10 01:44:00;;;;;;;20.17;10.77;;;3.70;93.70;;;;;;4922751;29;20051;-75
2022/01/10 01:46:26;;;;;;;19.30;10.48;;;3.70;93.70;;;;;;4919291;29;20580;-75
2022/01/10 01:48:52;;;;;;;20.83;11.20;;;3.70;93.70;;;;;;4919923;29;20095;-75
2022/01/10 01:51:18;;;;;;;19.35;10.88;;;3.60;93.70;;;;;;4922551;29;20495;-75
2022/01/10 01:53:44;;;;;;;24.83;11.65;;;3.60;93.70;;;;;;4923398;29;20489;-75
2022/01/10 01:56:10;;;;;;;18.83;11.95;;;3.60;93.70;;;;;;4898875;29;20079;-77
2022/01/10 01:58:37;;;;;;;22.67;12.27;;;3.60;93.70;;;;;;4919282;29;20191;-75
2022/01/10 02:01:03;;;;;;;20.10;11.38;;;3.60;93.80;;;;;;4903832;29;20056;-75
2022/01/10 02:03:38;;;;;;;20.70;11.57;;;3.50;93.80;;;;;;4946176;29;20043;-75
2022/01/10 02:06:07;;;;;;;22.58;12.15;;;3.50;93.80;;;;;;4940703;28;20059;-75
2022/01/10 02:08:33;;;;;;;18.85;11.60;;;3.50;93.80;;;;;;4937851;29;20118;-76
2022/01/10 02:10:59;;;;;;;22.13;11.00;;;3.50;93.80;;;;;;4922396;29;20087;-76
2022/01/10 02:13:26;;;;;;;22.67;11.77;;;3.50;93.80;;;;;;4937746;29;20471;-76
2022/01/10 02:16:01;;;;;;;19.67;11.82;;;3.40;93.80;;;;;;4938438;29;20058;-75
2022/01/10 02:18:27;;;;;;;19.55;11.40;;;3.40;93.80;;;;;;4923891;29;20051;-75
2022/01/10 02:20:53;;;;;;;19.42;11.38;;;3.40;93.80;;;;;;4938240;29;20079;-75
2022/01/10 02:23:19;;;;;;;19.83;11.38;;;3.40;93.80;;;;;;4937702;29;20093;-74
2022/01/10 02:25:45;;;;;;;19.92;11.23;;;3.30;93.80;;;;;;4953948;29;20051;-75
2022/01/10 02:28:11;;;;;;;22.92;12.32;;;3.40;93.90;;;;;;4938206;29;20610;-75
2022/01/10 02:30:36;;;;;;;20.23;10.75;;;3.30;93.80;;;;;;4937999;29;20486;-75
2022/01/10 02:33:03;;;;;;;22.10;11.38;;;3.30;93.80;;;;;;4922031;29;20400;-75
2022/01/10 02:35:42;;;;;;;18.13;11.07;;;3.30;93.90;;;;;;4937531;29;20058;-75
2022/01/10 02:38:11;;;;;;;19.13;11.65;;;3.30;93.90;;;;;;4939016;29;20043;-75
2022/01/10 02:40:36;;;;;;;17.55;10.63;;;3.20;93.90;;;;;;4921905;29;20410;-75
2022/01/10 02:43:07;;;;;;;19.23;10.48;;;3.20;93.90;;;;;;4937971;29;20129;-75
2022/01/10 02:45:32;;;;;;;19.83;10.43;;;3.20;93.90;;;;;;4953674;29;20105;-74
2022/01/10 02:47:58;;;;;;;16.08;10.77;;;3.10;93.90;;;;;;4954002;29;20467;-76
2022/01/10 02:50:24;;;;;;;18.10;11.57;;;3.10;93.90;;;;;;4921695;29;20516;-76
2022/01/10 02:52:50;;;;;;;16.48;10.43;;;3.00;93.80;;;;;;4938001;29;20047;-76
2022/01/10 02:55:15;;;;;;;16.25;10.65;;;3.00;93.80;;;;;;4937817;29;20077;-75
2022/01/10 02:57:41;;;;;;;19.38;11.25;;;3.00;93.80;;;;;;4922767;29;20534;-75
2022/01/10 03:00:18;;;;;;;17.52;10.30;;;3.00;93.80;;;;;;4940924;29;20054;-76
2022/01/10 03:02:48;;;;;;;20.83;11.02;;;2.90;93.80;;;;;;4957182;29;20047;-75
2022/01/10 03:05:14;;;;;;;19.27;10.32;;;2.90;93.80;;;;;;4943986;28;20499;-75
2022/01/10 03:07:40;;;;;;;15.90;11.10;;;2.90;93.80;;;;;;4942243;28;20050;-75
2022/01/10 03:10:06;;;;;;;17.05;10.80;;;2.90;93.80;;;;;;4910220;28;20109;-74
2022/01/10 03:12:32;;;;;;;19.30;11.93;;;2.90;93.80;;;;;;4925119;28;20069;-76
2022/01/10 03:14:58;;;;;;;17.50;10.65;;;2.80;93.80;;;;;;4943263;28;20114;-74
2022/01/10 03:17:24;;;;;;;18.77;9.85;;;2.80;93.80;;;;;;4927757;28;20054;-75
2022/01/10 03:19:50;;;;;;;15.73;10.43;;;2.80;93.80;;;;;;4943835;28;20050;-76
2022/01/10 03:22:16;;;;;;;17.98;10.65;;;2.80;93.80;;;;;;4944200;28;20055;-75
2022/01/10 03:24:42;;;;;;;18.75;10.80;;;2.80;93.80;;;;;;4925793;28;20546;-75
2022/01/10 03:27:07;;;;;;;17.05;10.48;;;2.80;93.80;;;;;;4970139;28;20047;-75
2022/01/10 03:29:33;;;;;;;17.05;10.93;;;2.70;93.80;;;;;;4972271;28;20057;-76
2022/01/10 03:32:01;;;;;;;21.48;11.55;;;2.70;93.80;;;;;;4917986;29;20047;-75
2022/01/10 03:34:27;;;;;;;18.58;11.35;;;2.70;93.80;;;;;;4929490;28;20062;-75
2022/01/10 03:36:53;;;;;;;20.05;12.52;;;2.70;93.80;;;;;;4928449;28;20050;-75
2022/01/10 03:39:19;;;;;;;22.13;12.40;;;2.70;93.80;;;;;;4954669;28;20523;-75
2022/01/10 03:41:44;;;;;;;21.23;11.45;;;2.70;93.80;;;;;;4940554;29;20055;-75
2022/01/10 03:44:10;;;;;;;22.40;11.45;;;2.70;93.90;;;;;;4948295;29;20047;-76
2022/01/10 03:46:36;;;;;;;21.48;12.05;;;2.60;93.90;;;;;;4939703;28;20105;-75
2022/01/10 03:49:01;;;;;;;20.17;11.23;;;2.60;93.90;;;;;;4932554;28;20054;-76
2022/01/10 03:51:29;;;;;;;26.27;12.13;;;2.60;93.90;;;;;;4946808;29;20047;-83
2022/01/10 03:53:55;;;;;;;17.73;11.63;;;2.60;93.90;;;;;;4927909;29;20051;-75
2022/01/10 03:56:21;;;;;;;16.67;10.75;;;2.60;93.90;;;;;;4925133;29;20042;-75
2022/01/10 03:58:47;;;;;;;18.05;11.68;;;2.60;93.90;;;;;;4909532;29;20280;-75
2022/01/10 04:01:13;;;;;;;19.52;11.70;;;2.50;93.90;;;;;;4908517;29;20043;-76
2022/01/10 04:03:40;;;;;;;15.63;11.40;;;2.50;93.90;;;;;;4924222;29;20203;-75
2022/01/10 04:06:05;;;;;;;17.10;10.45;;;2.50;93.90;;;;;;4892766;29;20048;-76
2022/01/10 04:08:32;;;;;;;20.50;12.63;;;2.50;93.80;;;;;;4923846;29;20062;-75
2022/01/10 04:10:58;;;;;;;17.08;11.20;;;2.50;93.80;;;;;;4893573;29;20043;-75
2022/01/10 04:13:23;;;;;;;15.23;10.68;;;2.50;93.80;;;;;;4924351;29;20518;-75
2022/01/10 04:15:49;;;;;;;16.88;11.68;;;2.40;93.80;;;;;;4923741;29;20051;-75
2022/01/10 04:18:15;;;;;;;17.20;11.27;;;2.40;93.80;;;;;;4908620;29;20051;-75
2022/01/10 04:20:42;;;;;;;20.10;11.18;;;2.40;93.80;;;;;;4908053;29;20051;-75
2022/01/10 04:23:08;;;;;;;19.33;11.75;;;2.40;93.90;;;;;;4940137;29;20062;-75
2022/01/10 04:25:36;;;;;;;17.38;11.82;;;2.40;93.90;;;;;;4892130;29;20051;-77
2022/01/10 04:28:01;;;;;;;24.13;13.10;;;2.30;93.80;;;;;;4908779;29;20157;-75
2022/01/10 04:30:27;;;;;;;22.40;12.82;;;2.30;93.90;;;;;;4908250;29;20507;-74
2022/01/10 04:32:53;;;;;;;19.00;11.45;;;2.30;93.90;;;;;;4923362;29;20070;-76
2022/01/10 04:35:19;;;;;;;20.73;11.82;;;2.30;93.90;;;;;;4924123;29;20502;-75
2022/01/10 04:37:44;;;;;;;20.05;12.80;;;2.30;93.90;;;;;;4923265;29;20087;-76
2022/01/10 04:40:11;;;;;;;17.10;12.02;;;2.30;93.90;;;;;;4939158;29;20043;-75
2022/01/10 04:42:36;;;;;;;16.50;12.18;;;2.20;93.90;;;;;;4907606;29;20054;-77
2022/01/10 04:45:03;;;;;;;21.60;13.68;;;2.20;93.80;;;;;;4923972;29;20480;-76
2022/01/10 04:47:28;;;;;;;22.38;13.32;;;2.20;93.90;;;;;;4923757;29;20078;-76
2022/01/10 04:52:29;;;;;;;17.38;11.63;;;2.20;93.90;;;;;;4924859;29;20055;-75
2022/01/10 04:54:54;;;;;;;23.17;13.52;;;2.20;93.90;;;;;;4907685;29;20113;-75
2022/01/10 04:57:20;;;;;;;22.67;13.98;;;2.20;93.90;;;;;;4908077;29;20550;-74
2022/01/10 04:59:46;;;;;;;17.33;12.15;;;2.20;93.90;;;;;;4923127;29;20043;-76
2022/01/10 05:02:12;;;;;;;19.73;13.27;;;2.10;93.80;;;;;;4939085;29;20094;-75
2022/01/10 05:04:37;;;;;;;17.00;12.63;;;2.10;93.80;;;;;;4923279;29;20054;-80
2022/01/10 05:07:03;;;;;;;18.58;12.52;;;2.10;93.80;;;;;;4923000;29;20063;-75
2022/01/10 05:09:29;;;;;;;18.58;12.65;;;2.10;93.90;;;;;;4924032;29;20440;-75
2022/01/10 05:11:58;;;;;;;19.25;13.23;;;2.10;93.90;;;;;;4923430;29;20047;-75
2022/01/10 05:14:24;;;;;;;18.70;12.90;;;2.10;93.90;;;;;;4939725;29;20125;-75
2022/01/10 05:16:49;;;;;;;20.20;12.32;;;2.10;93.80;;;;;;4922716;29;20043;-77
2022/01/10 05:19:15;;;;;;;21.17;12.98;;;2.00;93.80;;;;;;4923328;29;20062;-75
2022/01/10 05:21:41;;;;;;;15.85;11.90;;;2.00;93.80;;;;;;4922654;29;20055;-81
2022/01/10 05:24:07;;;;;;;20.80;14.35;;;2.00;93.80;;;;;;4923121;29;20083;-75
2022/01/10 05:26:33;;;;;;;18.88;13.18;;;2.00;93.90;;;;;;4938894;29;20055;-76
2022/01/10 05:29:01;;;;;;;19.70;12.82;;;2.00;93.80;;;;;;4922600;29;20062;-75
2022/01/10 05:31:36;;;;;;;23.10;14.25;;;2.00;93.90;;;;;;4955611;29;20055;-75
2022/01/10 05:34:02;;;;;;;22.45;14.60;;;2.00;93.90;;;;;;4907933;29;20595;-75
2022/01/10 05:36:27;;;;;;;20.60;13.82;;;1.90;93.80;;;;;;4907235;29;20058;-76
2022/01/10 05:38:53;;;;;;;16.73;14.23;;;1.90;93.80;;;;;;4922086;29;20086;-76
2022/01/10 05:41:21;;;;;;;19.58;14.10;;;1.90;93.90;;;;;;4891324;29;20047;-75
2022/01/10 05:43:47;;;;;;;22.33;13.82;;;1.90;93.80;;;;;;4922632;29;20054;-76
2022/01/10 05:46:16;;;;;;;20.75;14.40;;;1.90;93.90;;;;;;4938356;29;20043;-76
2022/01/10 05:48:46;;;;;;;20.00;14.45;;;1.90;93.90;;;;;;4923066;29;20365;-75
2022/01/10 05:51:13;;;;;;;21.00;14.77;;;1.90;93.80;;;;;;4913057;28;20109;-76
2022/01/10 05:53:39;;;;;;;23.38;13.88;;;1.90;93.90;;;;;;4906600;29;20495;-75
2022/01/10 05:56:05;;;;;;;21.73;14.13;;;1.90;93.90;;;;;;4905930;29;20063;-75
2022/01/10 05:58:30;;;;;;;19.95;14.38;;;1.80;93.80;;;;;;4943485;28;20055;-76
2022/01/10 06:00:56;;;;;;;24.38;14.65;;;1.80;93.80;;;;;;4940457;29;20051;-75
2022/01/10 06:03:25;;;;;;;23.98;14.93;;;1.80;93.80;;;;;;4936462;28;20487;-76
2022/01/10 06:05:50;;;;;;;20.60;14.80;;;1.80;93.80;;;;;;4944183;28;20059;-75
2022/01/10 06:08:19;;;;;;;19.90;14.80;;;1.80;93.80;;;;;;4954884;28;20446;-74
2022/01/10 06:10:45;;;;;;;24.13;14.88;;;1.80;93.80;;;;;;4935926;28;20050;-75
2022/01/10 06:13:11;;;;;;;23.38;14.98;;;1.80;93.80;;;;;;4954432;28;20414;-75
2022/01/10 06:15:37;;;;;;;23.27;14.60;;;1.80;93.80;;;;;;4938097;28;20235;-79
2022/01/10 06:18:03;;;;;;;18.13;14.45;;;1.70;93.80;;;;;;4918512;28;20051;-75
2022/01/10 06:20:29;;;;;;;23.27;15.32;;;1.70;93.80;;;;;;4922904;28;20050;-76
2022/01/10 06:22:54;;;;;;;20.02;15.43;;;1.70;93.80;;;;;;4938317;28;20038;-75
2022/01/10 06:25:22;;;;;;;19.90;14.77;;;1.70;93.80;;;;;;4921588;28;20046;-76
2022/01/10 06:27:48;;;;;;;21.55;14.75;;;1.70;93.80;;;;;;4940188;28;20482;-80
2022/01/10 06:30:14;;;;;;;21.48;15.45;;;1.70;93.70;;;;;;4940759;28;20047;-80
2022/01/10 06:32:39;;;;;;;18.40;15.52;;;1.70;93.80;;;;;;4925230;28;20423;-84
2022/01/10 06:35:06;;;;;;;20.52;14.68;;;1.70;93.80;;;;;;4924871;28;20114;-79
2022/01/10 06:37:31;;;;;;;19.48;14.40;;;1.70;93.80;;;;;;4924145;28;20047;-84
2022/01/10 06:39:57;;;;;;;19.73;13.98;;;1.70;93.80;;;;;;4924575;28;20058;-78
2022/01/10 06:42:23;;;;;;;20.33;14.68;;;1.70;93.80;;;;;;4940247;28;20480;-77
2022/01/10 06:44:49;;;;;;;20.13;14.07;;;1.60;93.80;;;;;;4956630;28;20074;-76
2022/01/10 06:47:14;;;;;;;25.67;14.57;;;1.90;95.10;;;;;;4905129;28;20097;-78
2022/01/10 06:49:40;;;;;;;18.52;13.68;;;2.00;94.40;;;;;;4939918;28;20051;-78
2022/01/10 06:52:06;;;;;;;19.38;13.82;;;1.90;94.00;;;;;;4939653;28;20051;-83
2022/01/10 06:54:31;;;;;;;17.83;14.23;;;1.90;93.80;;;;;;4956246;28;20046;-78
2022/01/10 06:57:00;;;;;;;16.88;12.43;;;1.90;93.80;;;;;;4906895;28;20100;-81
2022/01/10 06:59:26;;;;;;;16.23;13.98;;;1.90;94.10;;;;;;4924703;28;20055;-80
2022/01/10 07:01:52;;;;;;;17.02;13.40;;;1.80;93.80;;;;;;4939831;28;20053;-81
2022/01/10 07:04:18;;;;;;;15.73;12.90;;;1.80;93.80;;;;;;4954027;28;20647;-82
2022/01/10 07:06:44;;;;;;;17.90;13.95;;;2.00;94.70;;;;;;4939442;28;20066;-81
2022/01/10 07:09:09;;;;;;;17.20;14.20;;;2.00;94.20;;;;;;4939285;28;20051;-82
2022/01/10 07:11:36;;;;;;;19.85;13.25;;;2.10;93.90;;;;;;4940818;28;20051;-80
2022/01/10 07:14:02;;;;;;;14.98;13.40;;;2.20;94.70;;;;;;4923665;28;20050;-78
2022/01/10 07:16:28;;;;;;;18.75;13.63;;;2.20;94.10;;;;;;4923462;28;20054;-78
2022/01/10 07:18:54;;;;;;;14.38;12.38;;;2.20;93.90;;;;;;4972702;28;20056;-78
2022/01/10 07:21:20;;;;;;;15.00;12.85;;;2.20;93.80;;;;;;4940234;28;20043;-77
2022/01/10 07:23:46;;;;;;;15.63;13.63;;;2.10;93.80;;;;;;4924400;28;20046;-78
2022/01/10 07:26:11;;;;;;;16.20;12.88;;;2.00;93.80;;;;;;4973107;28;20047;-78
2022/01/10 07:28:37;;;;;;;17.23;14.27;;;2.00;93.80;;;;;;4940483;28;20050;-78
2022/01/10 07:31:03;;;;;;;14.77;13.38;;;2.00;93.90;;;;;;4940006;28;20047;-79
2022/01/10 07:33:28;;;;;;;16.08;14.38;;;1.90;93.90;;;;;;4940502;28;20109;-79
2022/01/10 07:35:54;;;;;;;16.05;13.95;;;1.90;93.90;;;;;;4924540;28;20050;-77
2022/01/10 07:38:20;;;;;;;15.70;13.85;;;1.90;93.90;;;;;;4940240;28;20043;-77
2022/01/10 07:40:46;;;;;;;15.77;13.88;;;1.90;93.90;;;;;;4909106;28;20106;-78
2022/01/10 07:43:11;;;;;;;15.00;13.40;;;1.90;93.90;;;;;;4940023;28;20043;-78
2022/01/10 07:45:40;;;;;;;14.77;13.38;;;1.80;93.90;;;;;;4940461;28;20368;-77
2022/01/10 07:48:05;;;;;;;15.00;13.40;;;1.80;93.80;;;;;;4924468;28;20053;-81
2022/01/10 07:50:31;;;;;;;16.60;14.70;;;1.80;93.80;;;;;;4973216;28;20411;-79
2022/01/10 07:52:57;;;;;;;15.48;13.98;;;1.80;93.80;;;;;;4973406;28;20054;-78
2022/01/10 07:55:22;;;;;;;17.15;15.30;;;1.80;93.80;;;;;;4939494;28;20514;-79
2022/01/10 07:57:48;;;;;;;17.27;14.82;;;1.80;93.80;;;;;;4971073;28;20047;-79
2022/01/10 08:00:14;;;;;;;16.25;14.55;;;1.80;93.80;;;;;;4922641;28;20055;-77
2022/01/10 08:02:40;;;;;;;17.33;15.43;;;1.80;93.80;;;;;;4956159;28;20046;-78
2022/01/10 08:05:07;;;;;;;19.70;15.55;;;1.70;93.80;;;;;;4940059;28;20189;-83
2022/01/10 08:07:34;;;;;;;17.35;15.10;;;1.70;93.80;;;;;;4940601;28;20487;-77
2022/01/10 08:10:00;;;;;;;18.25;15.85;;;1.80;93.80;;;;;;4956154;28;20055;-77
2022/01/10 08:12:26;;;;;;;20.50;16.45;;;1.70;93.80;;;;;;4955506;28;20043;-77
2022/01/10 08:14:51;;;;;;;19.92;16.52;;;1.80;93.80;;;;;;4956197;28;20061;-78
2022/01/10 08:17:17;;;;;;;20.67;17.00;;;1.70;93.80;;;;;;4959010;28;20046;-78
2022/01/10 08:19:43;;;;;;;21.17;17.42;;;1.70;93.80;;;;;;4927867;28;20049;-78
2022/01/10 08:22:08;;;;;;;20.27;17.40;;;1.70;93.80;;;;;;4943396;28;20478;-80
2022/01/10 08:24:34;;;;;;;20.33;16.88;;;1.70;94.10;;;;;;4943725;28;20042;-79
2022/01/10 08:27:00;;;;;;;20.48;17.80;;;1.70;93.80;;;;;;4943429;28;20134;-78
2022/01/10 08:29:25;;;;;;;20.30;18.25;;;1.70;93.80;;;;;;4911810;28;20478;-77
2022/01/10 08:31:51;;;;;;;23.73;17.60;;;1.70;93.80;;;;;;4943403;28;20047;-79
2022/01/10 08:34:17;;;;;;;22.83;17.40;;;1.80;93.80;;;;;;4926806;28;20467;-78
2022/01/10 08:36:43;;;;;;;21.02;18.83;;;1.80;93.90;;;;;;4959114;28;20043;-78
2022/01/10 08:39:08;;;;;;;21.13;18.45;;;1.80;93.90;;;;;;4943125;28;20058;-76
2022/01/10 08:41:37;;;;;;;22.33;18.75;;;1.80;93.90;;;;;;4943016;28;20089;-77
2022/01/10 08:44:04;;;;;;;21.42;18.17;;;1.90;94.00;;;;;;4928291;28;20046;-78
2022/01/10 08:46:30;;;;;;;21.10;18.63;;;1.90;94.00;;;;;;4942986;28;20073;-78
2022/01/10 08:48:55;;;;;;;23.65;20.27;;;2.00;94.00;;;;;;4927520;28;20451;-77
2022/01/10 08:51:21;;;;;;;22.88;19.40;;;2.00;94.00;;;;;;4976080;28;20077;-79
2022/01/10 08:53:47;;;;;;;24.73;19.70;;;2.10;94.00;;;;;;4959273;28;20059;-78
2022/01/10 08:56:12;;;;;;;25.88;21.50;;;2.10;94.00;;;;;;4942520;28;20054;-78
2022/01/10 08:58:38;;;;;;;21.67;18.75;;;2.10;94.00;;;;;;4958489;28;20039;-77
2022/01/10 09:01:05;;;;;;;26.80;21.05;;;2.20;94.00;;;;;;4958845;28;20042;-77
2022/01/10 09:03:32;;;;;;;27.30;20.38;;;2.20;94.00;;;;;;4927185;28;20043;-78
2022/01/10 09:05:57;;;;;;;29.05;20.63;;;2.20;94.00;;;;;;4955087;29;20499;-77
2022/01/10 09:08:25;;;;;;;24.55;20.45;;;2.20;94.00;;;;;;4939213;29;20055;-78
2022/01/10 09:10:51;;;;;;;29.27;21.88;;;2.30;94.10;;;;;;4939545;29;20130;-78
2022/01/10 09:13:17;;;;;;;30.25;22.10;;;2.30;94.00;;;;;;4956160;28;20202;-78
2022/01/10 09:15:42;;;;;;;32.25;22.15;;;2.30;94.00;;;;;;4939656;29;20054;-78
2022/01/10 09:18:08;;;;;;;26.38;20.90;;;2.30;94.00;;;;;;4955230;28;20216;-77
2022/01/10 09:20:34;;;;;;;27.02;21.02;;;2.30;94.00;;;;;;4938958;29;20472;-78
2022/01/10 09:22:59;;;;;;;26.25;21.67;;;2.30;94.00;;;;;;4923570;29;20117;-76
2022/01/10 09:25:27;;;;;;;29.67;21.95;;;2.30;94.00;;;;;;4955167;29;20039;-78
2022/01/10 09:27:53;;;;;;;28.90;20.90;;;2.30;94.00;;;;;;4956089;28;20166;-78
2022/01/10 09:30:19;;;;;;;28.75;21.88;;;2.30;94.10;;;;;;4938546;28;20500;-81
2022/01/10 09:32:45;;;;;;;31.15;22.98;;;2.40;94.10;;;;;;4955114;29;20047;-77
2022/01/10 09:35:11;;;;;;;31.20;23.30;;;2.40;94.10;;;;;;4954737;29;20059;-78
2022/01/10 09:37:37;;;;;;;30.95;22.02;;;2.40;94.10;;;;;;4938680;29;20102;-76
2022/01/10 09:40:03;;;;;;;30.98;23.83;;;2.40;94.10;;;;;;4956279;28;20130;-76
2022/01/10 09:42:29;;;;;;;34.17;23.05;;;2.40;94.10;;;;;;4922410;29;20059;-78
2022/01/10 09:44:55;;;;;;;29.63;23.48;;;2.50;94.10;;;;;;4954900;29;20079;-77
2022/01/10 09:47:21;;;;;;;29.88;24.30;;;2.50;94.00;;;;;;4923162;29;20105;-82
2022/01/10 09:49:46;;;;;;;27.98;22.13;;;2.50;94.00;;;;;;4954902;28;20180;-78
2022/01/10 09:52:13;;;;;;;27.70;23.30;;;2.60;94.00;;;;;;4954725;29;20134;-78
2022/01/10 09:54:38;;;;;;;32.65;23.88;;;2.60;94.00;;;;;;4938505;29;20552;-78
2022/01/10 09:57:05;;;;;;;28.95;23.50;;;2.60;94.00;;;;;;4954605;29;20135;-78
2022/01/10 09:59:30;;;;;;;27.85;23.02;;;2.70;94.00;;;;;;4954207;29;20403;-78
2022/01/10 10:01:56;;;;;;;28.23;24.73;;;2.70;94.00;;;;;;4955693;28;20043;-77
2022/01/10 10:04:24;;;;;;;33.13;25.73;;;2.70;94.10;;;;;;4954362;29;20074;-78
2022/01/10 10:06:50;;;;;;;28.48;25.02;;;2.80;94.10;;;;;;4951147;29;20059;-78
2022/01/10 10:09:16;;;;;;;33.95;25.58;;;2.80;94.10;;;;;;4919728;29;20055;-77
2022/01/10 10:11:50;;;;;;;29.40;26.20;;;2.90;94.10;;;;;;4934844;29;20047;-77
2022/01/10 10:14:17;;;;;;;29.85;25.33;;;2.90;94.10;;;;;;4935319;29;20113;-79
2022/01/10 10:16:49;;;;;;;35.08;26.90;;;3.00;94.10;;;;;;4934841;29;20051;-78
2022/01/10 10:19:22;;;;;;;31.10;26.33;;;3.10;94.10;;;;;;4934880;29;20496;-78
2022/01/10 10:21:49;;;;;;;34.60;27.67;;;3.10;94.10;;;;;;4934830;29;20079;-78
2022/01/10 10:24:17;;;;;;;27.98;25.00;;;3.10;94.00;;;;;;4918860;29;20044;-78
2022/01/10 10:26:43;;;;;;;34.83;26.80;;;3.20;94.00;;;;;;4934731;29;20512;-77
2022/01/10 10:29:16;;;;;;;32.80;26.25;;;3.30;94.00;;;;;;4919128;29;20079;-77
2022/01/10 10:31:53;;;;;;;33.67;27.85;;;3.30;94.00;;;;;;4934691;29;20058;-78
2022/01/10 10:34:20;;;;;;;33.28;27.77;;;3.40;94.00;;;;;;4919471;29;20048;-78
2022/01/10 10:36:58;;;;;;;34.95;28.52;;;3.40;93.90;;;;;;4934513;29;20051;-79
2022/01/10 10:39:25;;;;;;;36.13;28.88;;;3.50;94.00;;;;;;4918490;29;20396;-79
2022/01/10 10:41:53;;;;;;;38.45;30.00;;;3.50;94.00;;;;;;4934677;29;20052;-78
2022/01/10 10:44:21;;;;;;;35.80;30.60;;;3.60;94.00;;;;;;4934829;29;20107;-78
2022/01/10 10:46:50;;;;;;;36.22;30.05;;;3.70;94.20;;;;;;4935613;29;20058;-78
2022/01/10 10:49:18;;;;;;;37.00;30.65;;;3.80;94.30;;;;;;4934532;29;20095;-78
2022/01/10 10:51:45;;;;;;;40.53;33.55;;;4.00;94.30;;;;;;4935711;29;20083;-78
2022/01/10 10:54:11;;;;;;;36.17;30.80;;;4.00;94.40;;;;;;4919067;29;20467;-78
2022/01/10 10:56:41;;;;;;;45.05;33.08;;;4.10;94.40;;;;;;4934569;29;20123;-79
2022/01/10 10:59:08;;;;;;;40.17;32.28;;;4.20;94.50;;;;;;4934573;29;20043;-79
2022/01/10 11:01:36;;;;;;;40.38;33.10;;;4.30;94.50;;;;;;4918433;29;20475;-79
2022/01/10 11:04:05;;;;;;;41.25;32.53;;;4.50;94.60;;;;;;4949507;29;20049;-80
2022/01/10 11:06:32;;;;;;;38.28;30.75;;;4.60;94.60;;;;;;4933219;29;20084;-78
2022/01/10 11:08:59;;;;;;;34.33;28.55;;;4.80;94.60;;;;;;4934144;29;20111;-82
2022/01/10 11:11:25;;;;;;;39.35;33.65;;;4.90;94.50;;;;;;4917012;29;20130;-80
2022/01/10 11:13:51;;;;;;;38.90;33.20;;;5.00;94.40;;;;;;4930052;29;20083;-79
2022/01/10 11:16:17;;;;;;;45.70;35.67;;;5.20;94.30;;;;;;4917096;29;20151;-79
2022/01/10 11:18:42;;;;;;;40.88;33.75;;;5.30;94.30;;;;;;4917461;29;20139;-77
2022/01/10 11:21:08;;;;;;;42.97;33.55;;;5.50;94.30;;;;;;4935118;29;20055;-77
2022/01/10 11:23:39;;;;;;;37.55;31.83;;;5.70;94.30;;;;;;4933804;29;20052;-78
2022/01/10 11:26:06;;;;;;;39.28;31.38;;;6.00;94.10;;;;;;4902672;29;20448;-75
2022/01/10 11:28:31;;;;;;;34.35;26.63;;;6.30;93.80;;;;;;4934022;29;20051;-79
2022/01/10 11:31:04;;;;;;;31.63;26.38;;;6.60;93.30;;;;;;4934156;29;20555;-78
2022/01/10 11:33:35;;;;;;;30.30;26.02;;;7.10;92.60;;;;;;4933928;29;20044;-78
2022/01/10 11:36:08;;;;;;;32.00;25.75;;;7.50;92.20;;;;;;4933976;29;20055;-80
2022/01/10 11:38:45;;;;;;;29.20;23.25;;;7.90;91.50;;;;;;4932025;29;20128;-81
2022/01/10 11:41:24;;;;;;;26.27;21.38;;;8.30;90.80;;;;;;4917206;29;20110;-82
2022/01/10 11:44:05;;;;;;;24.23;21.25;;;8.90;90.60;;;;;;4901516;29;20048;-79
2022/01/10 11:46:40;;;;;;;30.58;23.05;;;9.40;88.70;;;;;;4917803;29;20440;-79
2022/01/10 11:49:09;;;;;;;25.40;22.33;;;9.70;87.60;;;;;;4933383;29;20047;-80
2022/01/10 11:51:52;;;;;;;26.13;21.77;;;10.10;86.60;;;;;;4938897;29;20044;-81
2022/01/10 11:54:28;;;;;;;25.42;22.00;;;10.30;85.90;;;;;;4954112;29;20131;-84
2022/01/10 11:56:57;;;;;;;27.58;22.27;;;10.60;84.50;;;;;;4920758;29;20086;-81
2022/01/10 11:59:24;;;;;;;29.05;22.50;;;10.90;84.50;;;;;;4938318;29;20048;-81
2022/01/10 12:01:59;;;;;;;23.30;19.30;;;11.20;83.40;;;;;;4922083;29;20052;-79
2022/01/10 12:04:33;;;;;;;24.17;20.92;;;11.40;81.70;;;;;;4921443;29;20052;-78
2022/01/10 12:06:58;;;;;;;29.10;20.77;;;11.60;81.50;;;;;;4937568;29;20063;-79
2022/01/10 12:09:24;;;;;;;22.75;20.23;;;11.80;81.10;;;;;;4938703;29;20051;-77
2022/01/10 12:11:51;;;;;;;23.02;18.88;;;12.00;80.40;;;;;;4921251;29;20142;-75
2022/01/10 12:14:17;;;;;;;23.13;19.60;;;12.10;79.70;;;;;;4921590;29;20059;-79
2022/01/10 12:16:43;;;;;;;23.40;19.75;;;12.10;79.50;;;;;;4921221;29;20043;-80
2022/01/10 12:19:11;;;;;;;24.73;20.10;;;12.10;79.20;;;;;;4936872;29;20047;-79
2022/01/10 12:21:40;;;;;;;21.27;19.05;;;12.30;78.50;;;;;;4937474;29;20051;-80
2022/01/10 12:24:06;;;;;;;23.05;19.83;;;12.50;78.00;;;;;;4936996;29;20493;-79
2022/01/10 12:26:32;;;;;;;26.00;20.02;;;12.70;77.30;;;;;;4919520;29;20098;-76
2022/01/10 12:28:58;;;;;;;22.95;20.23;;;12.90;76.60;;;;;;4936461;29;20091;-78
2022/01/10 12:31:25;;;;;;;22.38;19.92;;;13.00;76.00;;;;;;4936987;29;20500;-78
2022/01/10 12:33:51;;;;;;;22.60;20.17;;;13.10;75.40;;;;;;4921070;29;20052;-79
2022/01/10 12:36:20;;;;;;;22.27;19.55;;;13.30;75.30;;;;;;4937332;29;20051;-77
2022/01/10 12:38:54;;;;;;;22.40;20.15;;;13.30;74.90;;;;;;4921307;29;20047;-76
2022/01/10 12:41:20;;;;;;;22.90;20.42;;;13.30;74.20;;;;;;4920964;29;20484;-79
2022/01/10 12:43:48;;;;;;;25.55;20.33;;;13.30;74.80;;;;;;4920859;29;20047;-78
2022/01/10 12:46:14;;;;;;;23.42;21.02;;;13.30;74.60;;;;;;4920788;29;20055;-79
2022/01/10 12:48:41;;;;;;;22.58;20.00;;;13.30;74.80;;;;;;4936480;29;20044;-78